createdAt,value
2019-02-26T00:01:48.575Z,96092.88
2019-02-26T00:04:16.539Z,96086.98
2019-02-26T00:06:49.018Z,96092.35
2019-02-26T00:09:22.393Z,96086.51
2019-02-26T00:11:50.287Z,96094.27
2019-02-26T00:14:20.756Z,96097.31
2019-02-26T00:16:51.907Z,96095.30
2019-02-26T00:19:22.098Z,96093.86
2019-02-26T00:21:54.321Z,96095.59
2019-02-26T00:24:23.881Z,96096.38
2019-02-26T00:26:53.780Z,96094.97
2019-02-26T00:29:25.347Z,96095.88
2019-02-26T00:31:57.714Z,96098.96
2019-02-26T00:34:27.661Z,96105.61
2019-02-26T00:36:59.567Z,96098.07
2019-02-26T00:39:31.381Z,96094.67
2019-02-26T00:42:02.746Z,96094.95
2019-02-26T00:44:35.297Z,96089.33
2019-02-26T00:47:06.677Z,96086.92
2019-02-26T00:49:37.010Z,96071.92
2019-02-26T00:52:08.696Z,96068.30
2019-02-26T00:54:39.006Z,96064.36
2019-02-26T00:57:11.543Z,96059.83
2019-02-26T00:59:42.002Z,96050.99
2019-02-26T01:02:13.243Z,96042.73
2019-02-26T01:04:44.558Z,96035.11
2019-02-26T01:07:15.366Z,96038.42
2019-02-26T01:09:45.444Z,96030.75
2019-02-26T01:12:16.630Z,96028.95
2019-02-26T01:14:48.093Z,96029.96
2019-02-26T01:17:18.973Z,96033.77
2019-02-26T01:19:49.201Z,96030.34
2019-02-26T01:22:19.400Z,96019.09
2019-02-26T01:24:49.863Z,96020.50
2019-02-26T01:27:20.981Z,96018.38
2019-02-26T01:29:53.432Z,96027.28
2019-02-26T01:32:24.886Z,96017.70
2019-02-26T01:34:54.927Z,96018.12
2019-02-26T01:37:25.312Z,96023.20
2019-02-26T01:39:56.756Z,96017.08
2019-02-26T01:42:27.555Z,96013.53
2019-02-26T01:44:58.651Z,96007.09
2019-02-26T01:47:28.658Z,95999.30
2019-02-26T01:49:59.447Z,96000.25
2019-02-26T01:52:29.545Z,95989.61
2019-02-26T01:55:00.630Z,95990.20
2019-02-26T01:57:31.618Z,95994.23
2019-02-26T02:00:01.503Z,95989.09
2019-02-26T02:02:31.377Z,95981.95
2019-02-26T02:05:03.141Z,95978.30
2019-02-26T02:07:33.481Z,95959.38
2019-02-26T02:10:03.540Z,95958.59
2019-02-26T02:12:34.393Z,95947.66
2019-02-26T02:15:08.077Z,95943.20
2019-02-26T02:17:40.065Z,95950.44
2019-02-26T02:20:13.128Z,95957.88
2019-02-26T02:22:44.463Z,95956.39
2019-02-26T02:25:14.894Z,95957.00
2019-02-26T02:27:47.566Z,95952.69
2019-02-26T02:30:22.729Z,95954.46
2019-02-26T02:32:54.054Z,95952.87
2019-02-26T02:35:21.630Z,95951.19
2019-02-26T02:37:53.533Z,95959.84
2019-02-26T02:40:23.581Z,95960.93
2019-02-26T02:42:53.767Z,95961.53
2019-02-26T02:45:23.899Z,95966.95
2019-02-26T02:47:57.854Z,95964.44
2019-02-26T02:50:25.745Z,95958.20
2019-02-26T02:52:56.964Z,95944.41
2019-02-26T02:55:27.668Z,95935.65
2019-02-26T02:57:59.985Z,95929.85
2019-02-26T03:00:32.219Z,95916.18
2019-02-26T03:03:01.469Z,95918.40
2019-02-26T03:05:34.163Z,95913.77
2019-02-26T03:08:03.272Z,95923.03
2019-02-26T03:10:34.611Z,95922.09
2019-02-26T03:13:05.159Z,95921.52
2019-02-26T03:15:35.909Z,95919.20
2019-02-26T03:18:08.613Z,95928.23
2019-02-26T03:20:40.312Z,95917.56
2019-02-26T03:23:12.369Z,95916.74
2019-02-26T03:25:44.307Z,95909.09
2019-02-26T03:28:14.119Z,95920.75
2019-02-26T03:30:44.706Z,95900.48
2019-02-26T03:33:14.741Z,95896.58
2019-02-26T03:35:44.941Z,95892.87
2019-02-26T03:38:17.494Z,95892.56
2019-02-26T03:40:49.268Z,95889.14
2019-02-26T03:43:18.787Z,95890.56
2019-02-26T03:45:48.988Z,95888.33
2019-02-26T03:48:20.118Z,95892.95
2019-02-26T03:50:50.732Z,95894.66
2019-02-26T03:53:25.517Z,95897.98
2019-02-26T03:55:52.631Z,95897.98
2019-02-26T03:58:23.026Z,95892.00
2019-02-26T04:00:53.208Z,95895.91
2019-02-26T04:03:23.411Z,95897.42
2019-02-26T04:05:57.137Z,95886.00
2019-02-26T04:08:27.156Z,95887.59
2019-02-26T04:10:59.352Z,95886.38
2019-02-26T04:13:29.055Z,95878.27
2019-02-26T04:15:59.598Z,95871.97
2019-02-26T04:18:34.174Z,95866.16
2019-02-26T04:21:05.662Z,95867.20
2019-02-26T04:23:36.132Z,95870.89
2019-02-26T04:26:46.129Z,95862.03
2019-02-26T04:29:35.451Z,95865.94
2019-02-26T04:32:46.152Z,95865.02
2019-02-26T04:35:44.898Z,95864.08
2019-02-26T04:39:07.489Z,95865.58
2019-02-26T04:41:51.035Z,95875.09
2019-02-26T04:45:16.761Z,95865.47
2019-02-26T04:47:49.516Z,95863.63
2019-02-26T04:50:23.040Z,95861.48
2019-02-26T04:52:50.680Z,95859.97
2019-02-26T04:55:20.899Z,95854.44
2019-02-26T04:57:54.057Z,95868.58
2019-02-26T05:00:26.999Z,95869.36
2019-02-26T05:02:55.882Z,95873.59
2019-02-26T05:05:28.526Z,95872.28
2019-02-26T05:07:57.961Z,95869.44
2019-02-26T05:10:29.773Z,95869.19
2019-02-26T05:13:01.016Z,95865.91
2019-02-26T05:15:33.250Z,95864.35
2019-02-26T05:18:03.354Z,95859.11
2019-02-26T05:20:34.823Z,95858.41
2019-02-26T05:23:06.291Z,95859.25
2019-02-26T05:25:37.350Z,95862.23
2019-02-26T05:28:11.411Z,95864.45
2019-02-26T05:30:43.217Z,95869.94
2019-02-26T05:33:12.494Z,95872.03
2019-02-26T05:35:45.618Z,95871.97
2019-02-26T05:38:14.236Z,95879.00
2019-02-26T05:40:45.191Z,95872.23
2019-02-26T05:43:16.438Z,95868.62
2019-02-26T05:45:48.459Z,95866.25
2019-02-26T05:48:20.453Z,95866.93
2019-02-26T05:50:49.974Z,95861.37
2019-02-26T05:53:20.174Z,95861.42
2019-02-26T05:55:51.253Z,95861.16
2019-02-26T05:58:22.695Z,95863.37
2019-02-26T06:00:53.075Z,95858.30
2019-02-26T06:03:23.067Z,95864.98
2019-02-26T06:05:55.488Z,95867.63
2019-02-26T06:08:26.679Z,95864.98
2019-02-26T06:10:57.079Z,95867.08
2019-02-26T06:13:29.169Z,95863.22
2019-02-26T06:16:02.269Z,95852.66
2019-02-26T06:18:31.801Z,95852.22
2019-02-26T06:21:02.355Z,95855.39
2019-02-26T06:23:34.488Z,95851.89
2019-02-26T06:26:28.140Z,95848.94
2019-02-26T06:28:57.500Z,95843.34
2019-02-26T06:31:27.842Z,95845.44
2019-02-26T06:34:01.529Z,95842.58
2019-02-26T06:36:30.620Z,95839.02
2019-02-26T06:39:02.002Z,95829.28
2019-02-26T06:41:33.758Z,95825.65
2019-02-26T06:44:04.228Z,95820.89
2019-02-26T06:46:35.866Z,95817.63
2019-02-26T06:49:06.505Z,95810.92
2019-02-26T06:51:36.998Z,95820.70
2019-02-26T06:54:07.355Z,95798.05
2019-02-26T06:56:41.417Z,95802.90
2019-02-26T06:59:12.246Z,95796.66
2019-02-26T07:01:42.812Z,95793.30
2019-02-26T07:04:13.102Z,95786.52
2019-02-26T07:06:43.107Z,95780.38
2019-02-26T07:09:13.790Z,95779.77
2019-02-26T07:11:45.111Z,95779.65
2019-02-26T07:14:15.332Z,95775.39
2019-02-26T07:16:45.440Z,95770.27
2019-02-26T07:19:16.702Z,95571.26
2019-02-26T07:21:48.140Z,95771.25
2019-02-26T07:24:20.534Z,95764.78
2019-02-26T07:26:50.677Z,95759.08
2019-02-26T07:29:21.185Z,95757.31
2019-02-26T07:31:51.923Z,95761.41
2019-02-26T07:34:24.932Z,95751.05
2019-02-26T07:36:54.981Z,95752.20
2019-02-26T07:39:25.207Z,95743.45
2019-02-26T07:41:55.219Z,95739.30
2019-02-26T07:44:26.468Z,95728.83
2019-02-26T07:46:58.815Z,95723.08
2019-02-26T07:49:29.035Z,95721.72
2019-02-26T07:52:00.290Z,95716.19
2019-02-26T07:54:30.927Z,95710.02
2019-02-26T07:57:02.678Z,95709.27
2019-02-26T07:59:34.862Z,95695.68
2019-02-26T08:02:06.391Z,95692.72
2019-02-26T08:04:38.771Z,95683.16
2019-02-26T08:07:08.612Z,95674.61
2019-02-26T08:09:38.611Z,95663.38
2019-02-26T08:12:11.101Z,95667.47
2019-02-26T08:14:42.760Z,95657.51
2019-02-26T08:17:12.516Z,95655.38
2019-02-26T08:19:46.379Z,95644.88
2019-02-26T08:22:14.598Z,95642.72
2019-02-26T08:24:46.083Z,95645.16
2019-02-26T08:27:16.553Z,95638.92
2019-02-26T08:29:46.815Z,95644.09
2019-02-26T08:32:18.849Z,95647.11
2019-02-26T08:34:49.249Z,95638.16
2019-02-26T08:37:19.365Z,95634.02
2019-02-26T08:39:49.548Z,95632.08
2019-02-26T08:42:19.537Z,95624.75
2019-02-26T08:44:51.304Z,95615.42
2019-02-26T08:47:23.387Z,95607.74
2019-02-26T08:49:53.472Z,95603.27
2019-02-26T08:52:25.008Z,95598.17
2019-02-26T08:54:55.180Z,95599.42
2019-02-26T08:57:25.373Z,95594.78
2019-02-26T08:59:55.570Z,95581.54
2019-02-26T09:02:25.458Z,95576.98
2019-02-26T09:04:55.499Z,95576.13
2019-02-26T09:07:26.282Z,95567.23
2019-02-26T09:09:57.558Z,95571.98
2019-02-26T09:12:28.056Z,95558.28
2019-02-26T09:14:58.060Z,95542.89
2019-02-26T09:17:31.868Z,95543.82
2019-02-26T09:20:09.216Z,95536.00
2019-02-26T09:22:31.891Z,95528.24
2019-02-26T09:25:02.656Z,95522.27
2019-02-26T09:27:35.098Z,95521.72
2019-02-26T09:30:06.580Z,95513.11
2019-02-26T09:32:39.680Z,95506.45
2019-02-26T09:35:10.742Z,95509.52
2019-02-26T09:37:42.816Z,95493.95
2019-02-26T09:40:14.210Z,95494.41
2019-02-26T09:42:46.334Z,95497.83
2019-02-26T09:45:20.395Z,95489.81
2019-02-26T09:47:51.981Z,95479.54
2019-02-26T09:50:22.633Z,95478.30
2019-02-26T09:52:55.769Z,95483.66
2019-02-26T09:55:24.943Z,95465.46
2019-02-26T09:57:54.938Z,95460.56
2019-02-26T10:00:28.565Z,95451.07
2019-02-26T10:02:56.982Z,95454.95
2019-02-26T10:05:27.184Z,95442.13
2019-02-26T10:08:00.027Z,95432.94
2019-02-26T10:10:31.200Z,95418.27
2019-02-26T10:13:02.838Z,95413.04
2019-02-26T10:15:34.782Z,95396.80
2019-02-26T10:18:06.717Z,95393.59
2019-02-26T10:20:36.452Z,95378.98
2019-02-26T10:23:06.665Z,95377.80
2019-02-26T10:25:38.920Z,95371.16
2019-02-26T10:28:11.575Z,95367.42
2019-02-26T10:30:41.815Z,95368.05
2019-02-26T10:33:17.435Z,95352.83
2019-02-26T10:35:47.589Z,95345.06
2019-02-26T10:38:17.946Z,95337.98
2019-02-26T10:40:53.886Z,95327.67
2019-02-26T10:43:19.901Z,95320.81
2019-02-26T10:45:50.555Z,95303.81
2019-02-26T10:48:24.528Z,95292.59
2019-02-26T10:50:53.864Z,95289.47
2019-02-26T10:53:23.902Z,95280.57
2019-02-26T10:55:54.008Z,95261.23
2019-02-26T10:58:24.232Z,95269.64
2019-02-26T11:00:58.082Z,95262.04
2019-02-26T11:03:26.679Z,95249.30
2019-02-26T11:05:56.826Z,95243.78
2019-02-26T11:08:29.692Z,95244.59
2019-02-26T11:10:58.995Z,95234.75
2019-02-26T11:13:28.934Z,95235.19
2019-02-26T11:16:02.785Z,95232.49
2019-02-26T11:18:30.866Z,95226.90
2019-02-26T11:21:00.939Z,95223.59
2019-02-26T11:23:33.864Z,95210.12
2019-02-26T11:26:04.183Z,95202.77
2019-02-26T11:28:38.069Z,95210.61
2019-02-26T11:31:09.022Z,95221.85
2019-02-26T11:33:39.534Z,95218.91
2019-02-26T11:36:11.131Z,95208.05
2019-02-26T11:38:42.163Z,95208.61
2019-02-26T11:41:13.407Z,95201.17
2019-02-26T11:43:43.636Z,95195.27
2019-02-26T11:46:13.841Z,95178.02
2019-02-26T11:48:45.658Z,95167.56
2019-02-26T11:51:17.671Z,95160.14
2019-02-26T11:53:47.545Z,95163.66
2019-02-26T11:56:20.688Z,95149.07
2019-02-26T11:58:49.535Z,95144.25
2019-02-26T12:01:19.734Z,95131.77
2019-02-26T12:03:49.658Z,95127.33
2019-02-26T12:06:19.684Z,95115.15
2019-02-26T12:08:50.098Z,95107.72
2019-02-26T12:11:23.099Z,95091.27
2019-02-26T12:13:53.160Z,95087.23
2019-02-26T12:16:23.437Z,95092.30
2019-02-26T12:18:53.699Z,95088.48
2019-02-26T12:21:25.227Z,95077.58
2019-02-26T12:23:55.640Z,95081.36
2019-02-26T12:26:27.942Z,95078.16
2019-02-26T12:28:59.512Z,95076.64
2019-02-26T12:31:31.782Z,95085.06
2019-02-26T12:34:01.302Z,95088.31
2019-02-26T12:36:32.649Z,95073.15
2019-02-26T12:39:03.432Z,95071.77
2019-02-26T12:41:36.578Z,95068.50
2019-02-26T12:44:10.384Z,95072.88
2019-02-26T12:46:38.071Z,95075.19
2019-02-26T12:49:09.478Z,95071.42
2019-02-26T12:51:40.186Z,95060.61
2019-02-26T12:54:13.696Z,95061.75
2019-02-26T12:56:42.300Z,95058.95
2019-02-26T12:59:12.312Z,95043.56
2019-02-26T13:01:45.769Z,95046.81
2019-02-26T13:04:19.623Z,95045.53
2019-02-26T13:06:48.432Z,95042.18
2019-02-26T13:09:18.036Z,95037.09
2019-02-26T13:12:00.640Z,95033.04
2019-02-26T13:14:20.010Z,95025.95
2019-02-26T13:16:53.327Z,95025.59
2019-02-26T13:19:22.739Z,95019.85
2019-02-26T13:21:56.281Z,95024.80
2019-02-26T13:24:26.438Z,95028.78
2019-02-26T13:26:59.720Z,95028.91
2019-02-26T13:29:28.957Z,95029.09
2019-02-26T13:32:00.146Z,95021.28
2019-02-26T13:34:30.714Z,95019.26
2019-02-26T13:37:00.649Z,95020.83
2019-02-26T13:39:38.397Z,95004.56
2019-02-26T13:42:05.704Z,95001.58
2019-02-26T13:44:34.707Z,94998.12
2019-02-26T13:47:05.196Z,94988.20
2019-02-26T13:49:35.364Z,94988.20
2019-02-26T13:52:06.154Z,94981.53
2019-02-26T13:54:36.046Z,94981.89
2019-02-26T13:57:06.254Z,94979.49
2019-02-26T13:59:36.886Z,94974.98
2019-02-26T14:02:07.428Z,94978.14
2019-02-26T14:04:37.606Z,94970.73
2019-02-26T14:07:08.197Z,94956.42
2019-02-26T14:09:38.189Z,94953.50
2019-02-26T14:12:08.292Z,94948.43
2019-02-26T14:14:38.565Z,94943.59
2019-02-26T14:17:08.770Z,94940.36
2019-02-26T14:19:38.715Z,94940.77
2019-02-26T14:22:09.224Z,94929.11
2019-02-26T14:24:39.608Z,94927.25
2019-02-26T14:27:09.857Z,94919.23
2019-02-26T14:29:40.293Z,94917.57
2019-02-26T14:32:10.434Z,94913.66
2019-02-26T14:34:40.764Z,94912.42
2019-02-26T14:37:10.973Z,94913.39
2019-02-26T14:39:40.915Z,94919.16
2019-02-26T14:42:11.212Z,94919.55
2019-02-26T14:44:41.333Z,94923.56
2019-02-26T14:47:11.468Z,94916.94
2019-02-26T14:49:41.691Z,94912.77
2019-02-26T14:52:12.000Z,94905.26
2019-02-26T14:54:41.901Z,94904.39
2019-02-26T14:57:12.211Z,94892.84
2019-02-26T14:59:42.436Z,94901.77
2019-02-26T15:02:12.666Z,94890.31
2019-02-26T15:04:42.699Z,94886.50
2019-02-26T15:07:12.845Z,94888.98
2019-02-26T15:09:43.092Z,94886.80
2019-02-26T15:12:13.313Z,94695.73
2019-02-26T15:14:43.436Z,94884.45
2019-02-26T15:17:13.625Z,94880.59
2019-02-26T15:19:50.220Z,94878.13
2019-02-26T15:22:15.945Z,94889.17
2019-02-26T15:24:45.847Z,94896.79
2019-02-26T15:27:15.871Z,94893.13
2019-02-26T15:29:46.093Z,94890.54
2019-02-26T15:32:16.643Z,94532.25
2019-02-26T15:34:46.575Z,94887.01
2019-02-26T15:37:16.507Z,94882.00
2019-02-26T15:39:46.748Z,94876.23
2019-02-26T15:42:19.094Z,94872.49
2019-02-26T15:44:48.705Z,94878.07
2019-02-26T15:47:18.741Z,94868.31
2019-02-26T15:49:48.960Z,94855.38
2019-02-26T15:52:21.398Z,94848.35
2019-02-26T15:54:51.040Z,94843.58
2019-02-26T15:57:20.994Z,94846.33
2019-02-26T15:59:51.332Z,94845.14
2019-02-26T16:02:21.355Z,94843.83
2019-02-26T16:04:51.579Z,94835.59
2019-02-26T16:07:21.744Z,94831.97
2019-02-26T16:09:51.840Z,94829.71
2019-02-26T16:12:21.881Z,94827.67
2019-02-26T16:14:52.278Z,94831.75
2019-02-26T16:17:22.470Z,94842.19
2019-02-26T16:19:52.588Z,94844.30
2019-02-26T16:22:22.502Z,94855.92
2019-02-26T16:24:52.720Z,94863.48
2019-02-26T16:27:22.932Z,94863.44
2019-02-26T16:29:53.118Z,94869.09
2019-02-26T16:32:23.169Z,94864.14
2019-02-26T16:34:53.500Z,94870.50
2019-02-26T16:37:24.058Z,94865.25
2019-02-26T16:39:56.030Z,94867.98
2019-02-26T16:42:25.983Z,94875.41
2019-02-26T16:44:58.601Z,94882.64
2019-02-26T16:47:28.018Z,94881.79
2019-02-26T16:49:58.650Z,94889.32
2019-02-26T16:52:30.348Z,94885.72
2019-02-26T16:55:00.456Z,94884.55
2019-02-26T16:57:30.390Z,94888.06
2019-02-26T17:00:00.983Z,94881.20
2019-02-26T17:02:31.159Z,94893.34
2019-02-26T17:05:01.065Z,94888.92
2019-02-26T17:07:32.230Z,94885.49
2019-02-26T17:10:02.746Z,94893.27
2019-02-26T17:12:33.035Z,94893.69
2019-02-26T17:15:03.171Z,94904.05
2019-02-26T17:17:34.398Z,94901.52
2019-02-26T17:20:05.216Z,94897.80
2019-02-26T17:22:35.212Z,94897.09
2019-02-26T17:25:05.754Z,94894.09
2019-02-26T17:27:36.532Z,94888.13
2019-02-26T17:30:08.428Z,94895.79
2019-02-26T17:32:38.966Z,94900.82
2019-02-26T17:35:09.682Z,94885.97
2019-02-26T17:37:41.697Z,94896.77
2019-02-26T17:40:13.303Z,94891.29
2019-02-26T17:42:43.311Z,94891.14
2019-02-26T17:45:15.409Z,94891.55
2019-02-26T17:47:45.681Z,94896.13
2019-02-26T17:50:21.551Z,94897.33
2019-02-26T17:52:51.551Z,94896.73
2019-02-26T17:55:21.829Z,94894.08
2019-02-26T17:57:52.006Z,94897.06
2019-02-26T18:00:23.208Z,94897.65
2019-02-26T18:02:53.345Z,94910.89
2019-02-26T18:05:23.632Z,94917.12
2019-02-26T18:07:53.793Z,94912.69
2019-02-26T18:10:23.990Z,94917.77
2019-02-26T18:12:54.143Z,94918.33
2019-02-26T18:15:24.474Z,94921.30
2019-02-26T18:17:54.647Z,94929.47
2019-02-26T18:20:27.823Z,94924.99
2019-02-26T18:22:59.959Z,94928.17
2019-02-26T18:25:28.526Z,94923.44
2019-02-26T18:27:58.716Z,94930.52
2019-02-26T18:30:28.835Z,94936.88
2019-02-26T18:32:59.347Z,94951.68
2019-02-26T18:35:29.816Z,94945.05
2019-02-26T18:37:59.990Z,94946.41
2019-02-26T18:40:30.317Z,94963.30
2019-02-26T18:43:00.501Z,94963.77
2019-02-26T18:45:30.612Z,94965.69
2019-02-26T18:48:00.660Z,94974.84
2019-02-26T18:50:30.873Z,94962.72
2019-02-26T18:53:01.079Z,94969.57
2019-02-26T18:55:32.598Z,94975.02
2019-02-26T18:58:02.730Z,94983.70
2019-02-26T19:00:32.920Z,94976.60
2019-02-26T19:03:03.116Z,94984.63
2019-02-26T19:05:33.227Z,94984.95
2019-02-26T19:08:05.507Z,94989.34
2019-02-26T19:10:35.206Z,94987.49
2019-02-26T19:13:05.582Z,95005.28
2019-02-26T19:15:35.705Z,95027.65
2019-02-26T19:18:05.813Z,95007.30
2019-02-26T19:20:36.033Z,95004.94
2019-02-26T19:23:06.352Z,95014.00
2019-02-26T19:25:36.565Z,95012.34
2019-02-26T19:28:06.775Z,95014.66
2019-02-26T19:30:37.551Z,95019.91
2019-02-26T19:33:07.886Z,95015.11
2019-02-26T19:35:40.288Z,95018.61
2019-02-26T19:38:10.655Z,95017.33
2019-02-26T19:40:42.376Z,95013.30
2019-02-26T19:43:12.389Z,95014.09
2019-02-26T19:45:44.824Z,95014.11
2019-02-26T19:48:14.478Z,95018.55
2019-02-26T19:50:47.900Z,95015.55
2019-02-26T19:53:16.109Z,95021.05
2019-02-26T19:55:49.067Z,95022.93
2019-02-26T19:58:18.540Z,95009.48
2019-02-26T20:00:52.726Z,95024.19
2019-02-26T20:03:20.577Z,95030.09
2019-02-26T20:05:50.606Z,95030.58
2019-02-26T20:08:20.616Z,95029.59
2019-02-26T20:10:52.456Z,95033.02
2019-02-26T20:13:22.754Z,95032.13
2019-02-26T20:15:54.851Z,95041.75
2019-02-26T20:18:26.132Z,95049.75
2019-02-26T20:20:56.312Z,95047.95
2019-02-26T20:23:26.555Z,95052.86
2019-02-26T20:25:56.612Z,95058.25
2019-02-26T20:28:26.566Z,95070.64
2019-02-26T20:30:57.359Z,95081.21
2019-02-26T20:33:27.567Z,95083.22
2019-02-26T20:35:57.790Z,95086.30
2019-02-26T20:38:32.082Z,95088.23
2019-02-26T20:40:59.689Z,95089.04
2019-02-26T20:43:29.874Z,95091.67
2019-02-26T20:45:59.897Z,95104.83
2019-02-26T20:48:30.022Z,95111.23
2019-02-26T20:51:00.497Z,94910.80
2019-02-26T20:53:30.668Z,95116.92
2019-02-26T20:56:00.563Z,95124.52
2019-02-26T20:58:30.566Z,95123.85
2019-02-26T21:01:00.777Z,95129.97
2019-02-26T21:03:31.020Z,95132.31
2019-02-26T21:06:01.113Z,95134.73
2019-02-26T21:08:31.588Z,95128.78
2019-02-26T21:11:01.901Z,95131.94
2019-02-26T21:13:34.684Z,95139.56
2019-02-26T21:16:03.841Z,95143.14
2019-02-26T21:18:33.759Z,95135.03
2019-02-26T21:21:04.025Z,95133.66
2019-02-26T21:23:33.935Z,95140.17
2019-02-26T21:26:04.133Z,95143.73
2019-02-26T21:28:34.418Z,95138.97
2019-02-26T21:31:04.614Z,95138.70
2019-02-26T21:33:34.732Z,95139.42
2019-02-26T21:36:05.045Z,95147.82
2019-02-26T21:38:38.602Z,95140.38
2019-02-26T21:41:07.512Z,95146.56
2019-02-26T21:43:37.765Z,95146.83
2019-02-26T21:46:07.957Z,95146.06
2019-02-26T21:48:38.137Z,95138.15
2019-02-26T21:51:08.141Z,95134.30
2019-02-26T21:53:39.857Z,95133.95
2019-02-26T21:56:10.144Z,95121.78
2019-02-26T21:58:40.342Z,95123.80
2019-02-26T22:01:11.673Z,95118.77
2019-02-26T22:03:42.625Z,95114.00
2019-02-26T22:06:12.643Z,95104.23
2019-02-26T22:08:42.549Z,95112.84
2019-02-26T22:11:12.759Z,95111.45
2019-02-26T22:13:42.949Z,95114.20
2019-02-26T22:16:14.924Z,95120.87
2019-02-26T22:18:44.688Z,95122.89
2019-02-26T22:21:18.901Z,95123.29
2019-02-26T22:23:46.823Z,95122.36
2019-02-26T22:26:16.720Z,95131.45
2019-02-26T22:28:46.603Z,95124.13
2019-02-26T22:31:16.804Z,95121.00
2019-02-26T22:33:47.074Z,95123.69
2019-02-26T22:36:17.084Z,95120.53
2019-02-26T22:38:49.106Z,95122.23
2019-02-26T22:41:19.119Z,95121.84
2019-02-26T22:43:49.124Z,95117.70
2019-02-26T22:46:19.326Z,95117.98
2019-02-26T22:48:49.579Z,95130.54
2019-02-26T22:51:19.475Z,95133.95
2019-02-26T22:53:49.461Z,95133.42
2019-02-26T22:56:23.907Z,95138.66
2019-02-26T22:58:51.557Z,95140.41
2019-02-26T23:01:36.314Z,95144.51
2019-02-26T23:04:03.689Z,95148.03
2019-02-26T23:06:33.887Z,95146.72
2019-02-26T23:09:04.742Z,95144.23
2019-02-26T23:11:35.432Z,95148.53
2019-02-26T23:14:05.913Z,95150.02
2019-02-26T23:16:37.092Z,95146.06
2019-02-26T23:19:07.983Z,95146.77
2019-02-26T23:21:38.772Z,95147.17
2019-02-26T23:24:09.172Z,95150.83
2019-02-26T23:26:41.697Z,95157.52
2019-02-26T23:29:11.475Z,95157.06
2019-02-26T23:31:42.066Z,95158.39
2019-02-26T23:34:12.249Z,95151.61
2019-02-26T23:36:42.876Z,95155.54
2019-02-26T23:39:15.933Z,95156.48
2019-02-26T23:41:46.265Z,95154.88
2019-02-26T23:44:18.077Z,95153.13
2019-02-26T23:46:48.535Z,95158.19
2019-02-26T23:49:18.530Z,95156.45
2019-02-26T23:51:51.006Z,95160.97
2019-02-26T23:54:21.036Z,95160.60
2019-02-26T23:56:52.020Z,95158.23
2019-02-26T23:59:22.612Z,95156.73
